Lafayette Regional Airport
KLFT : now visible

Aeroporto :











RITROVATECI SU...

 
LOGIN :

Iscrizione | Disclaimer

   EN    FR    IT 

 









Sommario :    VFR   VFR Marginale   IFR   IFR Intensivo   IFR Molto Intensivo
Visibilità : 
Base nubi : 
>= 8 km
>= 3000ft
5 / 8 km
1000 / 3000 ft
1500m / 5 km
500 / 1000 ft
800 / 1500m
200 / 500 ft
< 800m
< 200 ft
Simboli :   Temporali  Nebbia  Neve Forte  Precipitazioni Forti  Vento > 20 kt






- Altitudine del aeroporto : 42 ft
- Codice IATA : LFT


KLFT - Lafayette Regional

ULTIMO METAR :
  • 040253Z 17004KT 10SM CLR 21/15 A2999 RMK AO2 SLP154 T02110150 53021

METARs OBSOLETI :
  • 040153Z 17004KT 10SM CLR 21/16 A2996 RMK AO2 SLP145 T02110161
  • 040053Z 00000KT 10SM BKN042 BKN060 23/16 A2993 RMK AO2 SLP135 T02280161

TAF KLFT
Valido dal 04 a 00 ore il 05 a 00 ore UTC


032320Z 0400/0424 14006KT P6SM BKN150
FM040100 VRB03KT P6SM BKN150
FM041500 07005KT P6SM BKN050



MetMap, La meteo Aeronautica in un colpo d'occhio ! - Copyright ORBIFLY Dicembre 2007 - Disclaimer

ORBIFLY MET'MAP TEAM :

Programmazione e sviluppo : Alexandra Zaïnal
Concezione : Baudouin d'Aumeries
Aiuto per la programmazione : Marc-Olivier Méhu
Supporto tecnico e logistico : Manuel Goepfert
Aiuto per la traduzione : Arnaldo La Scala

Contatto : metmap@orbifly.com




FONTI E CREDITI :

   NOAA       Earth
Advisory